DLH550 EDDC-EDDF
Flight info
| Callsign | DLH550 |
|---|---|
| Flight time | 0h 49m |
| Altitude | 34000 |
| Route | ABKIS4E ABKIS Z715 NURGO T170 VAGAB/N0405F240 T170 GAPLA T178 KERAX KERAX5D |
| Aircraft | A321/M-SDE3FGHIRWY/LB1 |
Departure
| Time | 2026-05-01 11:19 |
|---|---|
| Airport | Dresden Airport (EDDC) |
Arrival
| Time | 2026-05-01 12:08 |
|---|---|
| Airport | Frankfurt Main Airport (EDDF) |
| Time | Latitude | Longitude | Altitude | Speed | Heading |
|---|---|---|---|---|---|
| 2026-05-01 10:55 | 51.12627 | 13.76402 | 752 ft | 0 kts | 131° |
| 2026-05-01 11:09 | 51.12633 | 13.76393 | 752 ft | 2 kts | 131° |
| 2026-05-01 11:09 | 51.12642 | 13.76375 | 752 ft | 2 kts | 131° |
| 2026-05-01 11:10 | 51.12662 | 13.76339 | 751 ft | 2 kts | 131° |
| 2026-05-01 11:10 | 51.12671 | 13.76324 | 751 ft | 2 kts | 131° |
| 2026-05-01 11:10 | 51.12680 | 13.76306 | 750 ft | 2 kts | 132° |
| 2026-05-01 11:10 | 51.12693 | 13.76293 | 750 ft | 2 kts | 165° |
| 2026-05-01 11:11 | 51.12708 | 13.76290 | 750 ft | 2 kts | 188° |
| 2026-05-01 11:11 | 51.12722 | 13.76297 | 749 ft | 2 kts | 213° |
| 2026-05-01 11:11 | 51.12728 | 13.76304 | 749 ft | 1 kts | 226° |
| 2026-05-01 11:11 | 51.12731 | 13.76309 | 749 ft | 0 kts | 222° |
| 2026-05-01 11:14 | 51.12705 | 13.76273 | 749 ft | 5 kts | 220° |
| 2026-05-01 11:14 | 51.12670 | 13.76225 | 749 ft | 7 kts | 220° |
| 2026-05-01 11:14 | 51.12635 | 13.76178 | 749 ft | 5 kts | 221° |
| 2026-05-01 11:14 | 51.12618 | 13.76153 | 750 ft | 1 kts | 221° |
| 2026-05-01 11:15 | 51.12615 | 13.76149 | 750 ft | 0 kts | 221° |
| 2026-05-01 11:15 | 51.12592 | 13.76117 | 751 ft | 9 kts | 221° |
| 2026-05-01 11:15 | 51.12516 | 13.76014 | 751 ft | 19 kts | 220° |
| 2026-05-01 11:15 | 51.12419 | 13.75880 | 752 ft | 18 kts | 221° |
| 2026-05-01 11:16 | 51.12372 | 13.75762 | 750 ft | 13 kts | 281° |
| 2026-05-01 11:16 | 51.12386 | 13.75698 | 749 ft | 0 kts | 292° |
| 2026-05-01 11:17 | 51.12386 | 13.75697 | 748 ft | 0 kts | 292° |
| 2026-05-01 11:17 | 51.12411 | 13.75606 | 747 ft | 12 kts | 299° |
| 2026-05-01 11:17 | 51.12480 | 13.75513 | 745 ft | 13 kts | 360° |
| 2026-05-01 11:18 | 51.12586 | 13.75631 | 747 ft | 40 kts | 41° |
| 2026-05-01 11:18 | 51.12983 | 13.76178 | 739 ft | 109 kts | 41° |
| 2026-05-01 11:18 | 51.13726 | 13.77195 | 717 ft | 167 kts | 41° |
| 2026-05-01 11:18 | 51.14623 | 13.78470 | 1185 ft | 176 kts | 42° |
| 2026-05-01 11:19 | 51.15524 | 13.79781 | 1846 ft | 177 kts | 41° |
| 2026-05-01 11:19 | 51.16422 | 13.81046 | 2514 ft | 174 kts | 41° |
| 2026-05-01 11:19 | 51.17343 | 13.82319 | 2833 ft | 182 kts | 40° |
| 2026-05-01 11:19 | 51.18340 | 13.83667 | 3086 ft | 194 kts | 40° |
| 2026-05-01 11:20 | 51.19410 | 13.85117 | 3325 ft | 210 kts | 43° |
| 2026-05-01 11:20 | 51.20261 | 13.87101 | 3596 ft | 227 kts | 72° |
| 2026-05-01 11:20 | 51.20338 | 13.89669 | 3889 ft | 246 kts | 102° |
| 2026-05-01 11:20 | 51.19688 | 13.92270 | 4318 ft | 260 kts | 117° |
| 2026-05-01 11:21 | 51.18644 | 13.94627 | 4973 ft | 265 kts | 129° |
| 2026-05-01 11:21 | 51.17368 | 13.96779 | 5710 ft | 267 kts | 131° |
| 2026-05-01 11:21 | 51.16082 | 13.98848 | 6437 ft | 268 kts | 131° |
| 2026-05-01 11:21 | 51.14767 | 14.00967 | 7177 ft | 269 kts | 130° |
| 2026-05-01 11:22 | 51.13466 | 14.03088 | 7891 ft | 271 kts | 130° |
| 2026-05-01 11:22 | 51.12166 | 14.05222 | 8598 ft | 273 kts | 130° |
| 2026-05-01 11:22 | 51.10857 | 14.07373 | 9314 ft | 275 kts | 129° |
| 2026-05-01 11:22 | 51.09527 | 14.09552 | 10026 ft | 278 kts | 130° |
| 2026-05-01 11:23 | 51.07916 | 14.11350 | 10656 ft | 291 kts | 152° |
| 2026-05-01 11:23 | 51.05895 | 14.12031 | 11020 ft | 314 kts | 175° |
| 2026-05-01 11:23 | 51.03693 | 14.11284 | 11288 ft | 339 kts | 202° |
| 2026-05-01 11:23 | 51.01752 | 14.08970 | 11550 ft | 360 kts | 228° |
| 2026-05-01 11:24 | 51.00547 | 14.05447 | 11802 ft | 374 kts | 254° |
| 2026-05-01 11:24 | 50.99960 | 14.01394 | 12250 ft | 382 kts | 259° |
| 2026-05-01 11:24 | 50.98949 | 13.93034 | 13378 ft | 390 kts | 260° |
| 2026-05-01 11:25 | 50.98428 | 13.88843 | 13956 ft | 393 kts | 260° |
| 2026-05-01 11:25 | 50.97321 | 13.80286 | 15146 ft | 399 kts | 259° |
| 2026-05-01 11:25 | 50.96754 | 13.76008 | 15717 ft | 402 kts | 259° |
| 2026-05-01 11:26 | 50.96170 | 13.71631 | 16300 ft | 404 kts | 259° |
| 2026-05-01 11:26 | 50.95313 | 13.62811 | 17395 ft | 409 kts | 266° |
| 2026-05-01 11:26 | 50.95008 | 13.58328 | 17937 ft | 412 kts | 266° |
| 2026-05-01 11:27 | 50.94696 | 13.53779 | 18468 ft | 414 kts | 266° |
| 2026-05-01 11:27 | 50.94373 | 13.49245 | 18975 ft | 417 kts | 266° |
| 2026-05-01 11:27 | 50.94042 | 13.44733 | 19460 ft | 420 kts | 265° |
| 2026-05-01 11:27 | 50.93693 | 13.40089 | 19943 ft | 423 kts | 265° |
| 2026-05-01 11:28 | 50.93341 | 13.35479 | 20410 ft | 426 kts | 265° |
| 2026-05-01 11:28 | 50.92983 | 13.30808 | 20883 ft | 428 kts | 264° |
| 2026-05-01 11:28 | 50.92617 | 13.26119 | 21337 ft | 431 kts | 264° |
| 2026-05-01 11:29 | 50.91878 | 13.16707 | 22243 ft | 435 kts | 264° |
| 2026-05-01 11:29 | 50.91504 | 13.11980 | 22680 ft | 437 kts | 264° |
| 2026-05-01 11:29 | 50.90741 | 13.02420 | 23524 ft | 441 kts | 264° |
| 2026-05-01 11:30 | 50.90353 | 12.97605 | 23904 ft | 444 kts | 264° |
| 2026-05-01 11:30 | 50.89957 | 12.92733 | 24276 ft | 446 kts | 264° |
| 2026-05-01 11:30 | 50.89559 | 12.87843 | 24660 ft | 448 kts | 264° |
| 2026-05-01 11:30 | 50.89158 | 12.82948 | 25036 ft | 450 kts | 264° |
| 2026-05-01 11:31 | 50.88752 | 12.78017 | 25392 ft | 452 kts | 264° |
| 2026-05-01 11:31 | 50.88341 | 12.73047 | 25752 ft | 453 kts | 264° |
| 2026-05-01 11:31 | 50.87934 | 12.68137 | 26104 ft | 455 kts | 264° |
| 2026-05-01 11:31 | 50.87521 | 12.63191 | 26435 ft | 457 kts | 264° |
| 2026-05-01 11:32 | 50.87102 | 12.58200 | 26766 ft | 458 kts | 264° |
| 2026-05-01 11:32 | 50.86684 | 12.53244 | 27086 ft | 460 kts | 264° |
| 2026-05-01 11:32 | 50.86257 | 12.48220 | 27419 ft | 461 kts | 264° |
| 2026-05-01 11:32 | 50.85827 | 12.43182 | 27729 ft | 463 kts | 264° |
| 2026-05-01 11:33 | 50.85395 | 12.38147 | 28019 ft | 464 kts | 264° |
| 2026-05-01 11:33 | 50.84961 | 12.33113 | 28311 ft | 466 kts | 264° |
| 2026-05-01 11:33 | 50.84522 | 12.28043 | 28599 ft | 467 kts | 264° |
| 2026-05-01 11:33 | 50.84078 | 12.22961 | 28936 ft | 467 kts | 264° |
| 2026-05-01 11:34 | 50.83633 | 12.17888 | 29339 ft | 465 kts | 264° |
| 2026-05-01 11:34 | 50.83196 | 12.12909 | 29748 ft | 463 kts | 264° |
| 2026-05-01 11:34 | 50.82749 | 12.07862 | 30152 ft | 461 kts | 264° |
| 2026-05-01 11:34 | 50.82308 | 12.02908 | 30524 ft | 460 kts | 264° |
| 2026-05-01 11:35 | 50.81863 | 11.97914 | 30860 ft | 458 kts | 264° |
| 2026-05-01 11:35 | 50.81417 | 11.92939 | 31168 ft | 458 kts | 264° |
| 2026-05-01 11:35 | 50.80970 | 11.87977 | 31457 ft | 457 kts | 264° |
| 2026-05-01 11:35 | 50.80518 | 11.82995 | 31737 ft | 457 kts | 264° |
| 2026-05-01 11:36 | 50.80071 | 11.78079 | 32025 ft | 456 kts | 264° |
| 2026-05-01 11:36 | 50.79615 | 11.73097 | 32326 ft | 455 kts | 264° |
| 2026-05-01 11:36 | 50.79165 | 11.68210 | 32610 ft | 455 kts | 264° |
| 2026-05-01 11:36 | 50.78712 | 11.63305 | 32860 ft | 455 kts | 264° |
| 2026-05-01 11:37 | 50.78254 | 11.58372 | 33086 ft | 455 kts | 264° |
| 2026-05-01 11:37 | 50.77792 | 11.53415 | 33304 ft | 456 kts | 264° |
| 2026-05-01 11:37 | 50.77329 | 11.48469 | 33536 ft | 456 kts | 264° |
| 2026-05-01 11:37 | 50.76863 | 11.43521 | 33766 ft | 456 kts | 264° |
| 2026-05-01 11:38 | 50.76399 | 11.38616 | 33967 ft | 456 kts | 264° |
| 2026-05-01 11:38 | 50.75930 | 11.33688 | 34159 ft | 457 kts | 263° |
| 2026-05-01 11:38 | 50.75457 | 11.28727 | 34331 ft | 457 kts | 263° |
| 2026-05-01 11:39 | 50.74507 | 11.18838 | 34352 ft | 457 kts | 263° |
| 2026-05-01 11:39 | 50.73550 | 11.08969 | 34356 ft | 457 kts | 263° |
| 2026-05-01 11:40 | 50.72580 | 10.99065 | 34355 ft | 456 kts | 263° |
| 2026-05-01 11:40 | 50.71609 | 10.89244 | 34351 ft | 456 kts | 263° |
| 2026-05-01 11:41 | 50.70631 | 10.79421 | 34347 ft | 455 kts | 262° |
| 2026-05-01 11:41 | 50.69648 | 10.69627 | 34349 ft | 455 kts | 263° |
| 2026-05-01 11:42 | 50.68654 | 10.59813 | 34347 ft | 455 kts | 262° |
| 2026-05-01 11:42 | 50.67647 | 10.49964 | 34343 ft | 455 kts | 263° |
| 2026-05-01 11:43 | 50.66608 | 10.40156 | 34342 ft | 455 kts | 261° |
| 2026-05-01 11:43 | 50.65060 | 10.30547 | 34336 ft | 456 kts | 253° |
| 2026-05-01 11:44 | 50.61415 | 10.16705 | 34333 ft | 457 kts | 243° |
| 2026-05-01 11:44 | 50.58398 | 10.07958 | 34323 ft | 457 kts | 242° |
| 2026-05-01 11:45 | 50.55471 | 9.99130 | 34321 ft | 456 kts | 246° |
| 2026-05-01 11:45 | 50.54215 | 9.94617 | 34162 ft | 450 kts | 249° |
| 2026-05-01 11:45 | 50.53129 | 9.90038 | 33604 ft | 448 kts | 252° |
| 2026-05-01 11:46 | 50.52213 | 9.85368 | 32922 ft | 448 kts | 255° |
| 2026-05-01 11:46 | 50.51381 | 9.80671 | 32256 ft | 448 kts | 256° |
| 2026-05-01 11:46 | 50.50559 | 9.75994 | 31529 ft | 449 kts | 256° |
| 2026-05-01 11:46 | 50.49735 | 9.71297 | 30746 ft | 451 kts | 256° |
| 2026-05-01 11:47 | 50.48922 | 9.66554 | 29932 ft | 454 kts | 256° |
| 2026-05-01 11:47 | 50.48093 | 9.61713 | 29087 ft | 456 kts | 256° |
| 2026-05-01 11:47 | 50.47273 | 9.56974 | 28263 ft | 458 kts | 255° |
| 2026-05-01 11:47 | 50.46380 | 9.52145 | 27582 ft | 456 kts | 255° |
| 2026-05-01 11:48 | 50.45483 | 9.47434 | 26810 ft | 455 kts | 254° |
| 2026-05-01 11:48 | 50.44582 | 9.42730 | 26024 ft | 450 kts | 254° |
| 2026-05-01 11:48 | 50.43694 | 9.38077 | 25240 ft | 443 kts | 254° |
| 2026-05-01 11:48 | 50.42827 | 9.33524 | 24448 ft | 437 kts | 253° |
| 2026-05-01 11:49 | 50.41854 | 9.29084 | 23644 ft | 431 kts | 245° |
| 2026-05-01 11:49 | 50.40265 | 9.25112 | 22831 ft | 425 kts | 230° |
| 2026-05-01 11:49 | 50.38179 | 9.21975 | 22119 ft | 418 kts | 216° |
| 2026-05-01 11:49 | 50.35765 | 9.19509 | 21468 ft | 414 kts | 210° |
| 2026-05-01 11:50 | 50.33317 | 9.17199 | 20808 ft | 411 kts | 209° |
| 2026-05-01 11:50 | 50.30902 | 9.14921 | 20156 ft | 408 kts | 210° |
| 2026-05-01 11:50 | 50.28618 | 9.12266 | 19488 ft | 410 kts | 222° |
| 2026-05-01 11:50 | 50.26801 | 9.08865 | 18839 ft | 411 kts | 236° |
| 2026-05-01 11:51 | 50.25516 | 9.04863 | 18190 ft | 412 kts | 248° |
| 2026-05-01 11:51 | 50.24534 | 9.00705 | 17555 ft | 412 kts | 250° |
| 2026-05-01 11:51 | 50.23581 | 8.96491 | 16905 ft | 411 kts | 250° |
| 2026-05-01 11:51 | 50.22622 | 8.92266 | 16276 ft | 409 kts | 249° |
| 2026-05-01 11:52 | 50.21683 | 8.88180 | 15635 ft | 401 kts | 249° |
| 2026-05-01 11:52 | 50.20746 | 8.84151 | 15009 ft | 393 kts | 249° |
| 2026-05-01 11:52 | 50.19821 | 8.80202 | 14378 ft | 385 kts | 249° |
| 2026-05-01 11:52 | 50.18911 | 8.76331 | 13753 ft | 379 kts | 249° |
| 2026-05-01 11:53 | 50.18009 | 8.72513 | 13141 ft | 375 kts | 248° |
| 2026-05-01 11:53 | 50.17105 | 8.68698 | 12533 ft | 372 kts | 248° |
| 2026-05-01 11:53 | 50.16211 | 8.64932 | 11933 ft | 373 kts | 248° |
| 2026-05-01 11:53 | 50.15321 | 8.61187 | 11331 ft | 375 kts | 248° |
| 2026-05-01 11:54 | 50.14405 | 8.57339 | 10712 ft | 376 kts | 248° |
| 2026-05-01 11:54 | 50.13505 | 8.53561 | 10106 ft | 377 kts | 248° |
| 2026-05-01 11:54 | 50.12588 | 8.49725 | 9487 ft | 378 kts | 248° |
| 2026-05-01 11:54 | 50.11688 | 8.45964 | 8929 ft | 372 kts | 248° |
| 2026-05-01 11:55 | 50.10786 | 8.42204 | 8433 ft | 370 kts | 248° |
| 2026-05-01 11:55 | 50.09887 | 8.38473 | 7933 ft | 368 kts | 247° |
| 2026-05-01 11:55 | 50.08986 | 8.34769 | 7434 ft | 359 kts | 246° |
| 2026-05-01 11:55 | 50.08133 | 8.31247 | 6933 ft | 339 kts | 246° |
| 2026-05-01 11:56 | 50.07320 | 8.27893 | 6428 ft | 323 kts | 246° |
| 2026-05-01 11:56 | 50.06557 | 8.24747 | 5938 ft | 309 kts | 246° |
| 2026-05-01 11:56 | 50.05806 | 8.21660 | 5439 ft | 298 kts | 246° |
| 2026-05-01 11:56 | 50.05084 | 8.18700 | 4948 ft | 289 kts | 246° |
| 2026-05-01 11:57 | 50.04379 | 8.15817 | 4451 ft | 282 kts | 246° |
| 2026-05-01 11:57 | 50.03698 | 8.13027 | 4049 ft | 271 kts | 246° |
| 2026-05-01 11:57 | 50.03023 | 8.10420 | 3950 ft | 253 kts | 238° |
| 2026-05-01 11:57 | 50.01904 | 8.08619 | 3897 ft | 218 kts | 199° |
| 2026-05-01 11:58 | 50.00519 | 8.08245 | 3699 ft | 195 kts | 164° |
| 2026-05-01 11:58 | 49.99356 | 8.09105 | 3489 ft | 178 kts | 140° |
| 2026-05-01 11:58 | 49.97680 | 8.11628 | 3042 ft | 162 kts | 124° |
| 2026-05-01 11:59 | 49.97064 | 8.13100 | 2966 ft | 166 kts | 121° |
| 2026-05-01 11:59 | 49.96448 | 8.14607 | 3004 ft | 167 kts | 121° |
| 2026-05-01 11:59 | 49.96081 | 8.16302 | 2971 ft | 168 kts | 95° |
| 2026-05-01 12:00 | 49.97139 | 8.19423 | 2947 ft | 185 kts | 29° |
| 2026-05-01 12:00 | 49.98441 | 8.19544 | 2951 ft | 197 kts | 349° |
| 2026-05-01 12:00 | 49.99926 | 8.16433 | 2911 ft | 179 kts | 262° |
| 2026-05-01 12:01 | 49.99441 | 8.14814 | 2911 ft | 162 kts | 214° |
| 2026-05-01 12:01 | 49.98462 | 8.14283 | 2938 ft | 145 kts | 167° |
| 2026-05-01 12:01 | 49.97663 | 8.15043 | 2952 ft | 139 kts | 120° |
| 2026-05-01 12:01 | 49.97327 | 8.16475 | 2981 ft | 142 kts | 105° |
| 2026-05-01 12:02 | 49.97105 | 8.17975 | 2967 ft | 143 kts | 102° |
| 2026-05-01 12:02 | 49.97035 | 8.19534 | 2960 ft | 143 kts | 92° |
| 2026-05-01 12:02 | 49.97116 | 8.21077 | 2956 ft | 143 kts | 85° |
| 2026-05-01 12:02 | 49.97318 | 8.22565 | 2955 ft | 143 kts | 79° |
| 2026-05-01 12:03 | 49.97612 | 8.24046 | 2955 ft | 142 kts | 75° |
| 2026-05-01 12:03 | 49.97955 | 8.25488 | 2957 ft | 142 kts | 74° |
| 2026-05-01 12:03 | 49.98302 | 8.26914 | 2957 ft | 142 kts | 73° |
| 2026-05-01 12:03 | 49.98651 | 8.28340 | 2960 ft | 141 kts | 74° |
| 2026-05-01 12:04 | 49.98991 | 8.29790 | 2964 ft | 142 kts | 74° |
| 2026-05-01 12:04 | 49.99328 | 8.31237 | 2884 ft | 142 kts | 74° |
| 2026-05-01 12:04 | 49.99658 | 8.32661 | 2692 ft | 140 kts | 75° |
| 2026-05-01 12:04 | 49.99983 | 8.34071 | 2498 ft | 138 kts | 75° |
| 2026-05-01 12:05 | 50.00312 | 8.35476 | 2314 ft | 138 kts | 75° |
| 2026-05-01 12:05 | 50.00983 | 8.38268 | 1957 ft | 139 kts | 74° |
| 2026-05-01 12:05 | 50.01324 | 8.39664 | 1786 ft | 138 kts | 75° |
| 2026-05-01 12:06 | 50.01666 | 8.41066 | 1604 ft | 140 kts | 75° |
| 2026-05-01 12:06 | 50.02002 | 8.42469 | 1422 ft | 138 kts | 73° |
| 2026-05-01 12:06 | 50.02337 | 8.43868 | 1202 ft | 138 kts | 75° |
| 2026-05-01 12:06 | 50.02654 | 8.45259 | 999 ft | 139 kts | 76° |
| 2026-05-01 12:07 | 50.02981 | 8.46677 | 797 ft | 140 kts | 74° |
| 2026-05-01 12:07 | 50.03326 | 8.48084 | 610 ft | 140 kts | 71° |
| 2026-05-01 12:07 | 50.03670 | 8.49495 | 424 ft | 138 kts | 72° |
| 2026-05-01 12:07 | 50.03984 | 8.50861 | 357 ft | 119 kts | 69° |
| 2026-05-01 12:08 | 50.04209 | 8.51813 | 360 ft | 70 kts | 69° |
| 2026-05-01 12:08 | 50.04331 | 8.52321 | 366 ft | 40 kts | 69° |
| 2026-05-01 12:08 | 50.04394 | 8.52726 | 365 ft | 37 kts | 90° |
| 2026-05-01 12:08 | 50.04359 | 8.53120 | 355 ft | 36 kts | 98° |
| 2026-05-01 12:09 | 50.04393 | 8.53487 | 354 ft | 33 kts | 77° |
| 2026-05-01 12:09 | 50.04416 | 8.53827 | 355 ft | 30 kts | 84° |
| 2026-05-01 12:09 | 50.04437 | 8.54137 | 357 ft | 28 kts | 84° |
| 2026-05-01 12:09 | 50.04453 | 8.54440 | 354 ft | 30 kts | 93° |
| 2026-05-01 12:10 | 50.04355 | 8.54730 | 355 ft | 30 kts | 143° |
| 2026-05-01 12:10 | 50.04078 | 8.54905 | 351 ft | 0 kts | 159° |
| 2026-05-01 12:11 | 50.04070 | 8.54910 | 351 ft | 8 kts | 159° |
| 2026-05-01 12:11 | 50.04029 | 8.55055 | 352 ft | 18 kts | 70° |
| 2026-05-01 12:11 | 50.04077 | 8.55263 | 356 ft | 27 kts | 69° |
| 2026-05-01 12:12 | 50.04146 | 8.55550 | 358 ft | 27 kts | 69° |
| 2026-05-01 12:12 | 50.04213 | 8.55827 | 358 ft | 25 kts | 70° |
| 2026-05-01 12:12 | 50.04298 | 8.55954 | 362 ft | 17 kts | 344° |
| 2026-05-01 12:12 | 50.04409 | 8.55909 | 364 ft | 15 kts | 1° |
| 2026-05-01 12:13 | 50.04512 | 8.55950 | 366 ft | 14 kts | 17° |
| 2026-05-01 12:13 | 50.04578 | 8.56060 | 366 ft | 15 kts | 69° |
| 2026-05-01 12:13 | 50.04624 | 8.56255 | 366 ft | 20 kts | 70° |
| 2026-05-01 12:13 | 50.04665 | 8.56432 | 368 ft | 12 kts | 70° |
| 2026-05-01 12:14 | 50.04675 | 8.56532 | 370 ft | 8 kts | 98° |
| 2026-05-01 12:14 | 50.04657 | 8.56604 | 371 ft | 5 kts | 112° |
| 2026-05-01 12:14 | 50.04643 | 8.56651 | 372 ft | 4 kts | 114° |
| 2026-05-01 12:14 | 50.04639 | 8.56663 | 372 ft | 0 kts | 114° |